sensor_id;sensor_type;location;lat;lon;timestamp;temperature;humidity
26621;DHT22;14253;44.840;10.444;2022-09-03T00:01:34;21.10;99.90
26621;DHT22;14253;44.840;10.444;2022-09-03T00:07:12;21.20;99.90
26621;DHT22;14253;44.840;10.444;2022-09-03T00:09:46;21.20;99.90
26621;DHT22;14253;44.840;10.444;2022-09-03T00:12:27;21.20;99.90
26621;DHT22;14253;44.840;10.444;2022-09-03T00:15:16;21.20;99.90
26621;DHT22;14253;44.840;10.444;2022-09-03T00:17:59;21.20;99.90
26621;DHT22;14253;44.840;10.444;2022-09-03T00:20:32;21.20;99.90
26621;DHT22;14253;44.840;10.444;2022-09-03T00:23:04;21.20;99.90
26621;DHT22;14253;44.840;10.444;2022-09-03T00:25:48;21.30;99.90
26621;DHT22;14253;44.840;10.444;2022-09-03T00:28:33;21.20;99.90
26621;DHT22;14253;44.840;10.444;2022-09-03T00:31:09;21.20;99.90
26621;DHT22;14253;44.840;10.444;2022-09-03T00:33:40;21.20;99.90
26621;DHT22;14253;44.840;10.444;2022-09-03T00:36:19;21.20;99.90
26621;DHT22;14253;44.840;10.444;2022-09-03T00:38:47;21.30;99.90
26621;DHT22;14253;44.840;10.444;2022-09-03T00:46:59;21.20;99.90
26621;DHT22;14253;44.840;10.444;2022-09-03T01:00:07;21.20;99.90
26621;DHT22;14253;44.840;10.444;2022-09-03T01:11:20;21.00;99.90
26621;DHT22;14253;44.840;10.444;2022-09-03T01:17:17;20.90;99.90
26621;DHT22;14253;44.840;10.444;2022-09-03T01:28:37;20.90;99.90
26621;DHT22;14253;44.840;10.444;2022-09-03T01:36:48;20.90;99.90
26621;DHT22;14253;44.840;10.444;2022-09-03T01:45:18;20.80;99.90
26621;DHT22;14253;44.840;10.444;2022-09-03T01:59:06;20.70;99.90
26621;DHT22;14253;44.840;10.444;2022-09-03T02:01:44;20.70;99.90
26621;DHT22;14253;44.840;10.444;2022-09-03T02:04:20;20.70;99.90
26621;DHT22;14253;44.840;10.444;2022-09-03T02:06:49;20.70;99.90
26621;DHT22;14253;44.840;10.444;2022-09-03T02:09:16;20.70;99.90
26621;DHT22;14253;44.840;10.444;2022-09-03T02:11:44;20.70;99.90
26621;DHT22;14253;44.840;10.444;2022-09-03T02:14:12;20.80;99.90
26621;DHT22;14253;44.840;10.444;2022-09-03T02:16:38;20.80;99.90
26621;DHT22;14253;44.840;10.444;2022-09-03T02:19:08;20.80;99.90
26621;DHT22;14253;44.840;10.444;2022-09-03T02:21:59;20.80;99.90
26621;DHT22;14253;44.840;10.444;2022-09-03T02:24:26;20.80;99.90
26621;DHT22;14253;44.840;10.444;2022-09-03T02:26:53;20.80;99.90
26621;DHT22;14253;44.840;10.444;2022-09-03T02:29:19;20.70;99.90
26621;DHT22;14253;44.840;10.444;2022-09-03T02:31:46;20.70;99.90
26621;DHT22;14253;44.840;10.444;2022-09-03T02:34:12;20.70;99.90
26621;DHT22;14253;44.840;10.444;2022-09-03T02:36:41;20.70;99.90
26621;DHT22;14253;44.840;10.444;2022-09-03T02:39:08;20.70;99.90
26621;DHT22;14253;44.840;10.444;2022-09-03T02:41:34;20.70;99.90
26621;DHT22;14253;44.840;10.444;2022-09-03T02:44:10;20.70;99.90
26621;DHT22;14253;44.840;10.444;2022-09-03T02:46:47;20.70;99.90
26621;DHT22;14253;44.840;10.444;2022-09-03T02:49:14;20.60;99.90
26621;DHT22;14253;44.840;10.444;2022-09-03T02:51:42;20.50;99.90
26621;DHT22;14253;44.840;10.444;2022-09-03T02:54:10;20.40;99.90
26621;DHT22;14253;44.840;10.444;2022-09-03T02:56:36;20.30;99.90
26621;DHT22;14253;44.840;10.444;2022-09-03T02:59:04;20.30;1.00
26621;DHT22;14253;44.840;10.444;2022-09-03T03:01:31;20.20;1.00
26621;DHT22;14253;44.840;10.444;2022-09-03T03:03:58;20.10;1.00
26621;DHT22;14253;44.840;10.444;2022-09-03T03:06:25;20.10;1.00
26621;DHT22;14253;44.840;10.444;2022-09-03T03:08:51;20.10;1.00
26621;DHT22;14253;44.840;10.444;2022-09-03T03:11:21;20.00;1.00
26621;DHT22;14253;44.840;10.444;2022-09-03T03:13:51;19.90;1.00
26621;DHT22;14253;44.840;10.444;2022-09-03T03:16:18;19.90;1.00
26621;DHT22;14253;44.840;10.444;2022-09-03T03:18:44;19.90;1.00
26621;DHT22;14253;44.840;10.444;2022-09-03T03:21:15;19.80;1.00
26621;DHT22;14253;44.840;10.444;2022-09-03T03:23:42;19.70;1.00
26621;DHT22;14253;44.840;10.444;2022-09-03T03:26:14;19.70;1.00
26621;DHT22;14253;44.840;10.444;2022-09-03T03:28:43;19.70;1.00
26621;DHT22;14253;44.840;10.444;2022-09-03T03:31:18;19.60;1.00
26621;DHT22;14253;44.840;10.444;2022-09-03T03:33:53;19.50;1.00
26621;DHT22;14253;44.840;10.444;2022-09-03T03:36:19;19.40;1.00
26621;DHT22;14253;44.840;10.444;2022-09-03T03:38:46;19.40;1.00
26621;DHT22;14253;44.840;10.444;2022-09-03T03:41:15;19.40;1.00
26621;DHT22;14253;44.840;10.444;2022-09-03T03:43:41;19.30;1.00
26621;DHT22;14253;44.840;10.444;2022-09-03T03:46:08;19.30;1.00
26621;DHT22;14253;44.840;10.444;2022-09-03T03:48:35;19.30;1.00
26621;DHT22;14253;44.840;10.444;2022-09-03T03:51:05;19.30;1.00
26621;DHT22;14253;44.840;10.444;2022-09-03T03:53:36;19.20;1.00
26621;DHT22;14253;44.840;10.444;2022-09-03T03:56:05;19.20;1.00
26621;DHT22;14253;44.840;10.444;2022-09-03T03:58:32;19.10;1.00
26621;DHT22;14253;44.840;10.444;2022-09-03T04:01:08;19.20;1.00
26621;DHT22;14253;44.840;10.444;2022-09-03T04:03:35;19.10;1.00
26621;DHT22;14253;44.840;10.444;2022-09-03T04:06:01;19.10;1.00
26621;DHT22;14253;44.840;10.444;2022-09-03T04:08:29;19.10;1.00
26621;DHT22;14253;44.840;10.444;2022-09-03T04:11:00;19.10;1.00
26621;DHT22;14253;44.840;10.444;2022-09-03T04:13:30;19.00;1.00
26621;DHT22;14253;44.840;10.444;2022-09-03T04:16:04;19.10;1.00
26621;DHT22;14253;44.840;10.444;2022-09-03T04:18:31;19.10;1.00
26621;DHT22;14253;44.840;10.444;2022-09-03T04:21:18;19.10;1.00
26621;DHT22;14253;44.840;10.444;2022-09-03T04:23:46;19.20;1.00
26621;DHT22;14253;44.840;10.444;2022-09-03T04:26:18;19.30;1.00
26621;DHT22;14253;44.840;10.444;2022-09-03T04:28:44;19.40;1.00
26621;DHT22;14253;44.840;10.444;2022-09-03T04:31:12;19.40;1.00
26621;DHT22;14253;44.840;10.444;2022-09-03T04:33:38;19.40;1.00
26621;DHT22;14253;44.840;10.444;2022-09-03T04:36:13;19.50;1.00
26621;DHT22;14253;44.840;10.444;2022-09-03T04:38:41;19.40;1.00
26621;DHT22;14253;44.840;10.444;2022-09-03T04:41:10;19.40;1.00
26621;DHT22;14253;44.840;10.444;2022-09-03T04:43:36;19.40;1.00
26621;DHT22;14253;44.840;10.444;2022-09-03T04:46:05;19.40;1.00
26621;DHT22;14253;44.840;10.444;2022-09-03T04:48:33;19.30;1.00
26621;DHT22;14253;44.840;10.444;2022-09-03T04:51:07;19.30;1.00
26621;DHT22;14253;44.840;10.444;2022-09-03T04:53:45;19.30;1.00
26621;DHT22;14253;44.840;10.444;2022-09-03T04:56:27;19.30;1.00
26621;DHT22;14253;44.840;10.444;2022-09-03T04:58:54;19.30;1.00
26621;DHT22;14253;44.840;10.444;2022-09-03T05:01:26;19.30;1.00
26621;DHT22;14253;44.840;10.444;2022-09-03T05:03:52;19.20;1.00
26621;DHT22;14253;44.840;10.444;2022-09-03T05:06:19;19.20;1.00
26621;DHT22;14253;44.840;10.444;2022-09-03T05:08:49;19.20;1.00
26621;DHT22;14253;44.840;10.444;2022-09-03T05:11:16;19.20;1.00
26621;DHT22;14253;44.840;10.444;2022-09-03T05:13:42;19.20;1.00
26621;DHT22;14253;44.840;10.444;2022-09-03T05:16:09;19.10;1.00
26621;DHT22;14253;44.840;10.444;2022-09-03T05:18:42;19.10;1.00
26621;DHT22;14253;44.840;10.444;2022-09-03T05:21:23;19.10;1.00
26621;DHT22;14253;44.840;10.444;2022-09-03T05:24:00;19.20;1.00
26621;DHT22;14253;44.840;10.444;2022-09-03T05:26:32;19.20;1.00
26621;DHT22;14253;44.840;10.444;2022-09-03T05:29:02;19.40;1.00
26621;DHT22;14253;44.840;10.444;2022-09-03T05:31:33;19.40;1.00
26621;DHT22;14253;44.840;10.444;2022-09-03T05:34:01;19.40;1.00
26621;DHT22;14253;44.840;10.444;2022-09-03T05:36:30;19.40;1.00
26621;DHT22;14253;44.840;10.444;2022-09-03T05:38:57;19.40;1.00
26621;DHT22;14253;44.840;10.444;2022-09-03T05:41:24;19.40;1.00
26621;DHT22;14253;44.840;10.444;2022-09-03T05:43:52;19.40;1.00
26621;DHT22;14253;44.840;10.444;2022-09-03T05:46:22;19.40;1.00
26621;DHT22;14253;44.840;10.444;2022-09-03T05:48:52;19.50;1.00
26621;DHT22;14253;44.840;10.444;2022-09-03T05:51:19;19.40;1.00
26621;DHT22;14253;44.840;10.444;2022-09-03T05:53:46;19.40;1.00
26621;DHT22;14253;44.840;10.444;2022-09-03T05:56:21;19.50;1.00
26621;DHT22;14253;44.840;10.444;2022-09-03T05:58:55;19.50;1.00
26621;DHT22;14253;44.840;10.444;2022-09-03T06:01:29;19.60;1.00
26621;DHT22;14253;44.840;10.444;2022-09-03T06:04:06;19.60;1.00
26621;DHT22;14253;44.840;10.444;2022-09-03T06:06:39;19.60;1.00
26621;DHT22;14253;44.840;10.444;2022-09-03T06:09:08;19.90;1.00
26621;DHT22;14253;44.840;10.444;2022-09-03T06:11:36;20.20;1.00
26621;DHT22;14253;44.840;10.444;2022-09-03T06:14:04;20.60;1.00
26621;DHT22;14253;44.840;10.444;2022-09-03T06:16:31;20.80;99.90
26621;DHT22;14253;44.840;10.444;2022-09-03T06:19:01;20.70;99.90
26621;DHT22;14253;44.840;10.444;2022-09-03T06:21:28;20.80;99.90
26621;DHT22;14253;44.840;10.444;2022-09-03T06:23:55;21.00;99.90
26621;DHT22;14253;44.840;10.444;2022-09-03T06:26:22;21.10;99.90
26621;DHT22;14253;44.840;10.444;2022-09-03T06:28:49;21.20;99.90
26621;DHT22;14253;44.840;10.444;2022-09-03T06:31:19;21.20;99.90
26621;DHT22;14253;44.840;10.444;2022-09-03T06:33:46;21.10;99.90
26621;DHT22;14253;44.840;10.444;2022-09-03T06:36:17;20.90;99.90
26621;DHT22;14253;44.840;10.444;2022-09-03T06:38:44;20.80;99.90
26621;DHT22;14253;44.840;10.444;2022-09-03T06:41:16;20.80;99.90
26621;DHT22;14253;44.840;10.444;2022-09-03T06:43:46;20.80;99.90
26621;DHT22;14253;44.840;10.444;2022-09-03T06:46:19;21.00;99.90
26621;DHT22;14253;44.840;10.444;2022-09-03T06:48:45;20.80;99.90
26621;DHT22;14253;44.840;10.444;2022-09-03T06:51:20;20.80;99.90
26621;DHT22;14253;44.840;10.444;2022-09-03T06:53:49;20.80;99.90
26621;DHT22;14253;44.840;10.444;2022-09-03T06:56:18;20.70;99.90
26621;DHT22;14253;44.840;10.444;2022-09-03T06:58:46;20.90;99.90
26621;DHT22;14253;44.840;10.444;2022-09-03T07:01:18;21.40;99.90
26621;DHT22;14253;44.840;10.444;2022-09-03T07:03:46;21.80;99.90
26621;DHT22;14253;44.840;10.444;2022-09-03T07:06:17;22.20;99.90
26621;DHT22;14253;44.840;10.444;2022-09-03T07:08:49;22.60;99.90
26621;DHT22;14253;44.840;10.444;2022-09-03T07:11:19;23.10;99.90
26621;DHT22;14253;44.840;10.444;2022-09-03T07:13:49;23.40;99.90
26621;DHT22;14253;44.840;10.444;2022-09-03T07:16:35;23.80;99.90
26621;DHT22;14253;44.840;10.444;2022-09-03T07:19:03;24.10;99.90
26621;DHT22;14253;44.840;10.444;2022-09-03T07:21:34;24.40;99.90
26621;DHT22;14253;44.840;10.444;2022-09-03T07:24:04;24.50;99.90
26621;DHT22;14253;44.840;10.444;2022-09-03T07:26:38;24.50;99.90
26621;DHT22;14253;44.840;10.444;2022-09-03T07:29:06;24.60;99.90
26621;DHT22;14253;44.840;10.444;2022-09-03T07:31:34;24.90;99.90
26621;DHT22;14253;44.840;10.444;2022-09-03T07:34:08;25.10;99.90
26621;DHT22;14253;44.840;10.444;2022-09-03T07:36:43;25.10;99.90
26621;DHT22;14253;44.840;10.444;2022-09-03T07:39:13;25.30;99.90
26621;DHT22;14253;44.840;10.444;2022-09-03T07:41:40;25.30;99.90
26621;DHT22;14253;44.840;10.444;2022-09-03T07:44:14;25.50;99.90
26621;DHT22;14253;44.840;10.444;2022-09-03T07:46:40;25.20;99.90
26621;DHT22;14253;44.840;10.444;2022-09-03T07:49:08;25.10;99.90
26621;DHT22;14253;44.840;10.444;2022-09-03T07:51:35;25.10;99.90
26621;DHT22;14253;44.840;10.444;2022-09-03T07:54:03;24.90;99.90
26621;DHT22;14253;44.840;10.444;2022-09-03T07:56:33;24.80;99.90
26621;DHT22;14253;44.840;10.444;2022-09-03T07:59:03;24.80;99.90
26621;DHT22;14253;44.840;10.444;2022-09-03T08:01:30;24.70;99.90
26621;DHT22;14253;44.840;10.444;2022-09-03T08:03:57;24.70;99.90
26621;DHT22;14253;44.840;10.444;2022-09-03T08:06:26;25.00;99.90
26621;DHT22;14253;44.840;10.444;2022-09-03T08:08:57;25.20;99.90
26621;DHT22;14253;44.840;10.444;2022-09-03T08:11:25;25.10;99.90
26621;DHT22;14253;44.840;10.444;2022-09-03T08:13:57;25.20;99.90
26621;DHT22;14253;44.840;10.444;2022-09-03T08:16:29;25.40;99.90
26621;DHT22;14253;44.840;10.444;2022-09-03T08:18:55;25.40;99.90
26621;DHT22;14253;44.840;10.444;2022-09-03T08:21:22;25.50;99.90
26621;DHT22;14253;44.840;10.444;2022-09-03T08:23:50;25.80;99.90
26621;DHT22;14253;44.840;10.444;2022-09-03T08:26:21;25.90;99.90
26621;DHT22;14253;44.840;10.444;2022-09-03T08:28:51;25.90;99.90
26621;DHT22;14253;44.840;10.444;2022-09-03T08:31:19;25.90;99.90
26621;DHT22;14253;44.840;10.444;2022-09-03T08:33:48;26.00;99.90
26621;DHT22;14253;44.840;10.444;2022-09-03T08:36:17;25.80;99.90
26621;DHT22;14253;44.840;10.444;2022-09-03T08:38:45;25.90;99.90
26621;DHT22;14253;44.840;10.444;2022-09-03T08:41:17;26.10;99.90
26621;DHT22;14253;44.840;10.444;2022-09-03T08:46:48;26.90;99.90
26621;DHT22;14253;44.840;10.444;2022-09-03T08:51:53;26.80;99.90
26621;DHT22;14253;44.840;10.444;2022-09-03T08:54:24;27.00;99.90
26621;DHT22;14253;44.840;10.444;2022-09-03T08:56:53;27.10;99.90
26621;DHT22;14253;44.840;10.444;2022-09-03T08:59:20;27.00;99.90
26621;DHT22;14253;44.840;10.444;2022-09-03T09:04:47;26.70;99.90
26621;DHT22;14253;44.840;10.444;2022-09-03T09:07:49;26.70;99.90
26621;DHT22;14253;44.840;10.444;2022-09-03T09:10:36;26.70;99.90
26621;DHT22;14253;44.840;10.444;2022-09-03T09:13:31;26.60;99.90
26621;DHT22;14253;44.840;10.444;2022-09-03T09:21:33;26.10;99.90
26621;DHT22;14253;44.840;10.444;2022-09-03T09:24:06;25.90;99.90
26621;DHT22;14253;44.840;10.444;2022-09-03T09:26:42;26.00;99.90
26621;DHT22;14253;44.840;10.444;2022-09-03T09:29:09;25.90;99.90
26621;DHT22;14253;44.840;10.444;2022-09-03T09:31:37;25.80;99.90
26621;DHT22;14253;44.840;10.444;2022-09-03T09:34:05;25.90;99.90
26621;DHT22;14253;44.840;10.444;2022-09-03T09:36:47;25.90;99.90
26621;DHT22;14253;44.840;10.444;2022-09-03T09:39:14;25.80;99.90
26621;DHT22;14253;44.840;10.444;2022-09-03T09:41:57;25.80;99.90
26621;DHT22;14253;44.840;10.444;2022-09-03T09:44:25;25.80;99.90
26621;DHT22;14253;44.840;10.444;2022-09-03T09:46:51;25.70;99.90
26621;DHT22;14253;44.840;10.444;2022-09-03T09:49:31;25.70;99.90
26621;DHT22;14253;44.840;10.444;2022-09-03T09:52:09;25.70;99.90
26621;DHT22;14253;44.840;10.444;2022-09-03T09:54:37;25.80;99.90
26621;DHT22;14253;44.840;10.444;2022-09-03T09:57:05;25.90;99.90
26621;DHT22;14253;44.840;10.444;2022-09-03T09:59:33;26.00;99.90
26621;DHT22;14253;44.840;10.444;2022-09-03T10:02:22;25.90;99.90
26621;DHT22;14253;44.840;10.444;2022-09-03T10:05:10;25.70;99.90
26621;DHT22;14253;44.840;10.444;2022-09-03T10:07:37;25.80;99.90
26621;DHT22;14253;44.840;10.444;2022-09-03T10:13:05;26.10;99.90
26621;DHT22;14253;44.840;10.444;2022-09-03T10:15:46;26.70;99.90
26621;DHT22;14253;44.840;10.444;2022-09-03T10:21:14;27.20;99.90
26621;DHT22;14253;44.840;10.444;2022-09-03T10:23:55;27.20;99.90
26621;DHT22;14253;44.840;10.444;2022-09-03T10:26:23;27.20;99.90
26621;DHT22;14253;44.840;10.444;2022-09-03T10:29:03;26.90;99.90
26621;DHT22;14253;44.840;10.444;2022-09-03T10:34:43;26.60;99.90
26621;DHT22;14253;44.840;10.444;2022-09-03T10:37:37;26.60;99.90
26621;DHT22;14253;44.840;10.444;2022-09-03T11:00:00;26.90;99.90
26621;DHT22;14253;44.840;10.444;2022-09-03T11:05:37;26.80;99.90
26621;DHT22;14253;44.840;10.444;2022-09-03T11:08:16;26.60;99.90
26621;DHT22;14253;44.840;10.444;2022-09-03T11:10:59;26.40;99.90
26621;DHT22;14253;44.840;10.444;2022-09-03T11:13:33;26.40;99.90
26621;DHT22;14253;44.840;10.444;2022-09-03T11:16:16;26.40;99.90
26621;DHT22;14253;44.840;10.444;2022-09-03T11:18:56;26.40;99.90
26621;DHT22;14253;44.840;10.444;2022-09-03T11:21:27;26.40;99.90
26621;DHT22;14253;44.840;10.444;2022-09-03T11:24:09;26.30;99.90
26621;DHT22;14253;44.840;10.444;2022-09-03T11:26:39;26.40;99.90
26621;DHT22;14253;44.840;10.444;2022-09-03T11:29:23;26.30;99.90
26621;DHT22;14253;44.840;10.444;2022-09-03T11:32:00;26.20;99.90
26621;DHT22;14253;44.840;10.444;2022-09-03T11:34:29;26.10;99.90
26621;DHT22;14253;44.840;10.444;2022-09-03T11:37:25;26.20;99.90
26621;DHT22;14253;44.840;10.444;2022-09-03T11:40:05;26.00;99.90
26621;DHT22;14253;44.840;10.444;2022-09-03T11:42:38;26.00;99.90
26621;DHT22;14253;44.840;10.444;2022-09-03T11:45:21;26.00;99.90
26621;DHT22;14253;44.840;10.444;2022-09-03T11:47:48;25.90;99.90
26621;DHT22;14253;44.840;10.444;2022-09-03T11:52:53;26.00;99.90
26621;DHT22;14253;44.840;10.444;2022-09-03T11:55:29;26.10;99.90
26621;DHT22;14253;44.840;10.444;2022-09-03T11:57:57;26.00;99.90
26621;DHT22;14253;44.840;10.444;2022-09-03T12:00:23;25.90;99.90
26621;DHT22;14253;44.840;10.444;2022-09-03T12:02:55;25.90;99.90
26621;DHT22;14253;44.840;10.444;2022-09-03T12:19:54;25.70;99.90
26621;DHT22;14253;44.840;10.444;2022-09-03T12:22:24;25.70;99.90
26621;DHT22;14253;44.840;10.444;2022-09-03T12:24:51;25.70;99.90
26621;DHT22;14253;44.840;10.444;2022-09-03T12:29:59;26.00;99.90
26621;DHT22;14253;44.840;10.444;2022-09-03T12:32:28;26.00;99.90
26621;DHT22;14253;44.840;10.444;2022-09-03T12:34:57;26.10;99.90
26621;DHT22;14253;44.840;10.444;2022-09-03T12:37:25;26.20;99.90
26621;DHT22;14253;44.840;10.444;2022-09-03T12:39:55;26.30;99.90
26621;DHT22;14253;44.840;10.444;2022-09-03T12:42:26;26.40;99.90
26621;DHT22;14253;44.840;10.444;2022-09-03T12:44:53;26.50;99.90
26621;DHT22;14253;44.840;10.444;2022-09-03T12:47:22;26.50;99.90
26621;DHT22;14253;44.840;10.444;2022-09-03T12:49:51;26.50;99.90
26621;DHT22;14253;44.840;10.444;2022-09-03T12:54:56;26.50;99.90
26621;DHT22;14253;44.840;10.444;2022-09-03T12:57:28;26.40;99.90
26621;DHT22;14253;44.840;10.444;2022-09-03T12:59:59;26.30;99.90
26621;DHT22;14253;44.840;10.444;2022-09-03T13:02:36;26.30;99.90
26621;DHT22;14253;44.840;10.444;2022-09-03T13:05:04;26.30;99.90
26621;DHT22;14253;44.840;10.444;2022-09-03T13:07:36;26.40;99.90
26621;DHT22;14253;44.840;10.444;2022-09-03T13:10:11;26.60;99.90
26621;DHT22;14253;44.840;10.444;2022-09-03T13:12:45;26.70;99.90
26621;DHT22;14253;44.840;10.444;2022-09-03T13:15:23;26.70;99.90
26621;DHT22;14253;44.840;10.444;2022-09-03T13:18:07;26.80;99.90
26621;DHT22;14253;44.840;10.444;2022-09-03T13:26:26;26.70;99.90
26621;DHT22;14253;44.840;10.444;2022-09-03T13:31:46;26.60;99.90
26621;DHT22;14253;44.840;10.444;2022-09-03T13:39:48;26.50;99.90
26621;DHT22;14253;44.840;10.444;2022-09-03T13:42:44;26.50;99.90
26621;DHT22;14253;44.840;10.444;2022-09-03T13:45:36;26.50;99.90
26621;DHT22;14253;44.840;10.444;2022-09-03T13:51:35;26.20;99.90
26621;DHT22;14253;44.840;10.444;2022-09-03T13:57:01;26.20;99.90
26621;DHT22;14253;44.840;10.444;2022-09-03T14:22:00;26.10;99.90
26621;DHT22;14253;44.840;10.444;2022-09-03T14:24:52;26.00;99.90
26621;DHT22;14253;44.840;10.444;2022-09-03T14:27:27;26.00;99.90
26621;DHT22;14253;44.840;10.444;2022-09-03T14:30:15;26.00;99.90
26621;DHT22;14253;44.840;10.444;2022-09-03T14:44:00;25.90;99.90
26621;DHT22;14253;44.840;10.444;2022-09-03T14:58:28;26.30;99.90
26621;DHT22;14253;44.840;10.444;2022-09-03T15:03:46;27.30;99.90
26621;DHT22;14253;44.840;10.444;2022-09-03T15:07:02;27.60;99.90
26621;DHT22;14253;44.840;10.444;2022-09-03T15:09:45;27.80;99.90
26621;DHT22;14253;44.840;10.444;2022-09-03T15:12:28;27.80;99.90
26621;DHT22;14253;44.840;10.444;2022-09-03T15:14:57;27.40;99.90
26621;DHT22;14253;44.840;10.444;2022-09-03T15:20:47;27.60;99.90
26621;DHT22;14253;44.840;10.444;2022-09-03T15:31:43;27.30;99.90
26621;DHT22;14253;44.840;10.444;2022-09-03T15:34:57;27.20;99.90
26621;DHT22;14253;44.840;10.444;2022-09-03T15:37:51;27.10;99.90
26621;DHT22;14253;44.840;10.444;2022-09-03T15:40:34;27.00;99.90
26621;DHT22;14253;44.840;10.444;2022-09-03T15:43:24;26.80;99.90
26621;DHT22;14253;44.840;10.444;2022-09-03T15:46:02;26.90;99.90
26621;DHT22;14253;44.840;10.444;2022-09-03T15:49:01;26.80;99.90
26621;DHT22;14253;44.840;10.444;2022-09-03T15:51:34;27.00;99.90
26621;DHT22;14253;44.840;10.444;2022-09-03T15:54:22;27.00;99.90
26621;DHT22;14253;44.840;10.444;2022-09-03T15:57:06;27.00;99.90
26621;DHT22;14253;44.840;10.444;2022-09-03T15:59:50;26.90;99.90
26621;DHT22;14253;44.840;10.444;2022-09-03T16:02:29;26.80;99.90
26621;DHT22;14253;44.840;10.444;2022-09-03T16:15:32;25.90;99.90
26621;DHT22;14253;44.840;10.444;2022-09-03T16:18:02;25.50;99.90
26621;DHT22;14253;44.840;10.444;2022-09-03T16:26:04;25.10;99.90
26621;DHT22;14253;44.840;10.444;2022-09-03T16:28:40;25.10;99.90
26621;DHT22;14253;44.840;10.444;2022-09-03T16:36:53;24.80;99.90
26621;DHT22;14253;44.840;10.444;2022-09-03T16:39:39;24.80;99.90
26621;DHT22;14253;44.840;10.444;2022-09-03T16:42:37;24.70;99.90
26621;DHT22;14253;44.840;10.444;2022-09-03T16:48:10;24.70;99.90
26621;DHT22;14253;44.840;10.444;2022-09-03T16:56:18;24.40;99.90
26621;DHT22;14253;44.840;10.444;2022-09-03T17:02:16;24.30;99.90
26621;DHT22;14253;44.840;10.444;2022-09-03T17:10:17;24.00;1.00
26621;DHT22;14253;44.840;10.444;2022-09-03T17:15:50;24.10;1.00
26621;DHT22;14253;44.840;10.444;2022-09-03T17:21:28;23.80;1.00
26621;DHT22;14253;44.840;10.444;2022-09-03T17:24:03;23.80;1.00
26621;DHT22;14253;44.840;10.444;2022-09-03T17:32:45;23.60;1.00
26621;DHT22;14253;44.840;10.444;2022-09-03T17:49:00;23.30;1.00
26621;DHT22;14253;44.840;10.444;2022-09-03T17:52:05;23.30;1.00
26621;DHT22;14253;44.840;10.444;2022-09-03T17:57:14;23.20;27.90
26621;DHT22;14253;44.840;10.444;2022-09-03T17:59:59;23.10;44.50
26621;DHT22;14253;44.840;10.444;2022-09-03T18:02:42;23.00;79.40
26621;DHT22;14253;44.840;10.444;2022-09-03T18:18:41;22.90;99.90
26621;DHT22;14253;44.840;10.444;2022-09-03T18:21:11;22.80;99.90
26621;DHT22;14253;44.840;10.444;2022-09-03T18:27:06;22.70;99.90
26621;DHT22;14253;44.840;10.444;2022-09-03T18:30:03;22.60;99.90
26621;DHT22;14253;44.840;10.444;2022-09-03T18:32:48;22.60;99.90
26621;DHT22;14253;44.840;10.444;2022-09-03T18:35:33;22.60;99.90
26621;DHT22;14253;44.840;10.444;2022-09-03T18:38:26;22.50;99.90
26621;DHT22;14253;44.840;10.444;2022-09-03T18:57:17;22.50;99.90
26621;DHT22;14253;44.840;10.444;2022-09-03T19:00:12;22.50;99.90
26621;DHT22;14253;44.840;10.444;2022-09-03T19:09:24;22.40;99.90
26621;DHT22;14253;44.840;10.444;2022-09-03T19:15:28;22.20;99.90
26621;DHT22;14253;44.840;10.444;2022-09-03T19:24:20;22.20;99.90
26621;DHT22;14253;44.840;10.444;2022-09-03T19:30:09;22.10;99.90
26621;DHT22;14253;44.840;10.444;2022-09-03T19:36:23;22.10;99.90
26621;DHT22;14253;44.840;10.444;2022-09-03T19:46:12;22.20;99.90
26621;DHT22;14253;44.840;10.444;2022-09-03T19:55:03;22.20;99.90
26621;DHT22;14253;44.840;10.444;2022-09-03T19:57:52;22.20;99.90
26621;DHT22;14253;44.840;10.444;2022-09-03T20:00:38;22.10;99.90
26621;DHT22;14253;44.840;10.444;2022-09-03T20:03:24;22.10;99.90
26621;DHT22;14253;44.840;10.444;2022-09-03T20:06:09;22.10;99.90
26621;DHT22;14253;44.840;10.444;2022-09-03T20:08:59;22.00;99.90
26621;DHT22;14253;44.840;10.444;2022-09-03T20:11:47;22.00;99.90
26621;DHT22;14253;44.840;10.444;2022-09-03T20:14:14;21.90;99.90
26621;DHT22;14253;44.840;10.444;2022-09-03T20:25:15;21.70;99.90
26621;DHT22;14253;44.840;10.444;2022-09-03T20:30:39;21.80;99.90
26621;DHT22;14253;44.840;10.444;2022-09-03T20:53:00;21.50;99.90
26621;DHT22;14253;44.840;10.444;2022-09-03T20:55:39;21.50;99.90
26621;DHT22;14253;44.840;10.444;2022-09-03T20:58:15;21.50;99.90
26621;DHT22;14253;44.840;10.444;2022-09-03T21:01:08;21.50;99.90
26621;DHT22;14253;44.840;10.444;2022-09-03T21:04:09;21.50;99.90
26621;DHT22;14253;44.840;10.444;2022-09-03T21:06:40;21.40;99.90
26621;DHT22;14253;44.840;10.444;2022-09-03T21:14:53;21.40;99.90
26621;DHT22;14253;44.840;10.444;2022-09-03T21:25:25;21.40;99.90
26621;DHT22;14253;44.840;10.444;2022-09-03T21:28:00;21.30;99.90
26621;DHT22;14253;44.840;10.444;2022-09-03T21:30:29;21.30;99.90
26621;DHT22;14253;44.840;10.444;2022-09-03T21:33:05;21.20;99.90
26621;DHT22;14253;44.840;10.444;2022-09-03T21:35:44;21.20;99.90
26621;DHT22;14253;44.840;10.444;2022-09-03T21:38:21;21.20;99.90
26621;DHT22;14253;44.840;10.444;2022-09-03T21:40:58;21.20;99.90
26621;DHT22;14253;44.840;10.444;2022-09-03T21:43:33;21.10;99.90
26621;DHT22;14253;44.840;10.444;2022-09-03T21:49:15;21.00;99.90
26621;DHT22;14253;44.840;10.444;2022-09-03T21:51:59;20.90;99.90
26621;DHT22;14253;44.840;10.444;2022-09-03T21:54:29;20.80;99.90
26621;DHT22;14253;44.840;10.444;2022-09-03T22:02:39;20.70;99.90
26621;DHT22;14253;44.840;10.444;2022-09-03T22:05:06;20.70;99.90
26621;DHT22;14253;44.840;10.444;2022-09-03T22:10:11;20.70;99.90
26621;DHT22;14253;44.840;10.444;2022-09-03T22:13:16;20.60;99.90
26621;DHT22;14253;44.840;10.444;2022-09-03T22:15:48;20.60;99.90
26621;DHT22;14253;44.840;10.444;2022-09-03T22:18:21;20.50;99.90
26621;DHT22;14253;44.840;10.444;2022-09-03T22:24:17;20.50;99.90
26621;DHT22;14253;44.840;10.444;2022-09-03T22:29:50;20.40;99.90
26621;DHT22;14253;44.840;10.444;2022-09-03T22:50:56;20.50;99.90
26621;DHT22;14253;44.840;10.444;2022-09-03T22:56:11;20.50;99.90
26621;DHT22;14253;44.840;10.444;2022-09-03T22:58:43;20.40;99.90
26621;DHT22;14253;44.840;10.444;2022-09-03T23:01:25;20.30;99.90
26621;DHT22;14253;44.840;10.444;2022-09-03T23:09:24;20.20;99.90
26621;DHT22;14253;44.840;10.444;2022-09-03T23:11:56;20.20;99.90
26621;DHT22;14253;44.840;10.444;2022-09-03T23:14:27;20.20;99.90
26621;DHT22;14253;44.840;10.444;2022-09-03T23:17:15;20.20;99.90
26621;DHT22;14253;44.840;10.444;2022-09-03T23:20:01;20.20;99.90